Time;durP1;ratioP1;P1;durP2;ratioP2;P2;SDS_P1;SDS_P2;PMS_P1;PMS_P2;Temp;Humidity;BMP_temperature;BMP_pressure;BME280_temperature;BME280_humidity;BME280_pressure;Samples;Min_cycle;Max_cycle;Signal;HPM_P1;HPM_P2
2022/10/19 00:01:00;;;;;;;0.00;0.00;;;;;;;;;;4935145;29;20391;-88
2022/10/19 00:03:26;;;;;;;0.00;0.00;;;;;;;;;;4934973;29;20040;-88
2022/10/19 00:05:52;;;;;;;0.00;0.00;;;;;;;;;;4935046;29;20055;-88
2022/10/19 00:08:18;;;;;;;0.00;0.00;;;;;;;;;;4934496;29;20048;-88
2022/10/19 00:10:44;;;;;;;0.00;0.00;;;;;;;;;;4918920;29;20476;-88
2022/10/19 00:13:10;;;;;;;0.00;0.00;;;;;;;;;;4918678;29;20040;-87
2022/10/19 00:15:40;;;;;;;0.00;0.00;;;;;;;;;;4919008;29;20047;-87
2022/10/19 00:18:06;;;;;;;0.00;0.00;;;;;;;;;;4934343;29;20051;-88
2022/10/19 00:20:35;;;;;;;0.00;0.00;;;;;;;;;;4918925;29;20059;-88
2022/10/19 00:23:02;;;;;;;0.00;0.00;;;;;;;;;;4934554;29;20047;-89
2022/10/19 00:25:28;;;;;;;0.00;0.00;;;;;;;;;;4919231;29;20043;-89
2022/10/19 00:27:54;;;;;;;0.00;0.00;;;;;;;;;;4934569;29;20054;-88
2022/10/19 00:30:20;;;;;;;0.00;0.00;;;;;;;;;;4918751;29;20062;-88
2022/10/19 00:32:46;;;;;;;0.00;0.00;;;;;;;;;;4934510;29;20055;-88
2022/10/19 00:35:12;;;;;;;0.00;0.00;;;;;;;;;;4918869;29;20086;-88
2022/10/19 00:37:38;;;;;;;0.00;0.00;;;;;;;;;;4934070;29;20044;-85
2022/10/19 00:40:05;;;;;;;0.00;0.00;;;;;;;;;;4934418;29;20047;-88
2022/10/19 00:42:30;;;;;;;0.00;0.00;;;;;;;;;;4934157;29;20411;-89
2022/10/19 00:44:58;;;;;;;0.00;0.00;;;;;;;;;;4934465;29;20047;-88
2022/10/19 00:47:24;;;;;;;0.00;0.00;;;;;;;;;;4934286;29;20054;-88
2022/10/19 00:49:50;;;;;;;0.00;0.00;;;;;;;;;;4934146;29;20098;-88
2022/10/19 00:52:18;;;;;;;0.00;0.00;;;;;;;;;;4934380;29;20049;-88
2022/10/19 00:54:45;;;;;;;0.00;0.00;;;;;;;;;;4934317;29;20105;-88
2022/10/19 00:57:11;;;;;;;0.00;0.00;;;;;;;;;;4933911;29;20048;-88
2022/10/19 00:59:39;;;;;;;0.00;0.00;;;;;;;;;;4934155;29;20083;-88
2022/10/19 01:02:05;;;;;;;0.00;0.00;;;;;;;;;;4934098;29;20047;-88
2022/10/19 01:04:33;;;;;;;0.00;0.00;;;;;;;;;;4934369;29;20051;-88
2022/10/19 01:06:59;;;;;;;0.00;0.00;;;;;;;;;;4918467;29;20051;-89
2022/10/19 01:09:25;;;;;;;0.00;0.00;;;;;;;;;;4934466;29;20040;-88
2022/10/19 01:11:51;;;;;;;0.00;0.00;;;;;;;;;;4933814;29;20072;-88
2022/10/19 01:14:20;;;;;;;0.00;0.00;;;;;;;;;;4933649;29;20044;-87
2022/10/19 01:16:59;;;;;;;0.00;0.00;;;;;;;;;;4933885;29;20081;-88
2022/10/19 01:19:39;;;;;;;0.00;0.00;;;;;;;;;;4933916;29;20035;-87
2022/10/19 01:22:12;;;;;;;0.00;0.00;;;;;;;;;;4933892;29;20436;-87
2022/10/19 01:24:51;;;;;;;0.00;0.00;;;;;;;;;;4933836;29;20083;-87
2022/10/19 01:27:26;;;;;;;0.00;0.00;;;;;;;;;;4917890;29;20082;-88
2022/10/19 01:29:58;;;;;;;0.00;0.00;;;;;;;;;;4923651;29;20063;-89
2022/10/19 01:32:32;;;;;;;0.00;0.00;;;;;;;;;;4902340;29;20048;-89
2022/10/19 01:35:24;;;;;;;0.00;0.00;;;;;;;;;;4917950;29;20043;-88
2022/10/19 01:37:56;;;;;;;0.00;0.00;;;;;;;;;;4902419;29;20121;-87
2022/10/19 01:40:30;;;;;;;0.00;0.00;;;;;;;;;;4918167;29;20404;-88
2022/10/19 01:43:09;;;;;;;0.00;0.00;;;;;;;;;;4901983;29;20040;-88
2022/10/19 01:45:38;;;;;;;0.00;0.00;;;;;;;;;;4902071;29;20099;-87
2022/10/19 01:48:10;;;;;;;0.00;0.00;;;;;;;;;;4917509;29;20483;-88
2022/10/19 01:50:41;;;;;;;0.00;0.00;;;;;;;;;;4917972;29;20050;-87
2022/10/19 01:53:09;;;;;;;0.00;0.00;;;;;;;;;;4902157;29;20042;-87
2022/10/19 01:55:37;;;;;;;0.00;0.00;;;;;;;;;;4902011;29;20127;-87
2022/10/19 01:58:05;;;;;;;0.00;0.00;;;;;;;;;;4901660;29;20035;-87
2022/10/19 02:00:31;;;;;;;0.00;0.00;;;;;;;;;;4917866;29;20086;-88
2022/10/19 02:02:58;;;;;;;0.00;0.00;;;;;;;;;;4920039;29;20126;-88
2022/10/19 02:05:28;;;;;;;0.00;0.00;;;;;;;;;;4921127;29;20094;-88
2022/10/19 02:08:01;;;;;;;0.00;0.00;;;;;;;;;;4921230;29;20130;-88
2022/10/19 02:10:28;;;;;;;0.00;0.00;;;;;;;;;;4920866;29;20043;-88
2022/10/19 02:12:55;;;;;;;0.00;0.00;;;;;;;;;;4920848;29;20047;-88
2022/10/19 02:15:22;;;;;;;0.00;0.00;;;;;;;;;;4905587;29;20504;-88
2022/10/19 02:17:50;;;;;;;0.00;0.00;;;;;;;;;;4904995;29;20130;-88
2022/10/19 02:20:16;;;;;;;0.00;0.00;;;;;;;;;;4921272;29;20050;-88
2022/10/19 02:22:43;;;;;;;0.00;0.00;;;;;;;;;;4920767;29;20063;-88
2022/10/19 02:25:09;;;;;;;0.00;0.00;;;;;;;;;;4920848;29;20051;-89
2022/10/19 02:27:36;;;;;;;0.00;0.00;;;;;;;;;;4920617;29;20040;-88
2022/10/19 02:30:02;;;;;;;0.00;0.00;;;;;;;;;;4904837;29;20506;-88
2022/10/19 02:32:28;;;;;;;0.00;0.00;;;;;;;;;;4920532;29;20047;-88
2022/10/19 02:34:54;;;;;;;0.00;0.00;;;;;;;;;;4920747;29;20047;-88
2022/10/19 02:37:20;;;;;;;0.00;0.00;;;;;;;;;;4905159;29;20099;-88
2022/10/19 02:39:46;;;;;;;0.00;0.00;;;;;;;;;;4920322;29;20052;-87
2022/10/19 02:42:12;;;;;;;0.00;0.00;;;;;;;;;;4920797;29;20102;-88
2022/10/19 02:44:52;;;;;;;0.00;0.00;;;;;;;;;;4904776;29;20546;-87
2022/10/19 02:47:20;;;;;;;0.00;0.00;;;;;;;;;;4904843;29;20040;-88
2022/10/19 02:49:47;;;;;;;0.00;0.00;;;;;;;;;;4904863;29;20123;-87
2022/10/19 02:52:13;;;;;;;0.00;0.00;;;;;;;;;;4920888;29;20131;-87
2022/10/19 02:54:40;;;;;;;0.00;0.00;;;;;;;;;;4904621;29;20048;-87
2022/10/19 02:57:14;;;;;;;0.00;0.00;;;;;;;;;;4904485;29;20436;-87
2022/10/19 02:59:40;;;;;;;0.00;0.00;;;;;;;;;;4920082;29;20043;-88
2022/10/19 03:02:06;;;;;;;0.00;0.00;;;;;;;;;;4920638;29;20106;-88
2022/10/19 03:04:32;;;;;;;0.00;0.00;;;;;;;;;;4920215;29;20048;-87
2022/10/19 03:06:58;;;;;;;0.00;0.00;;;;;;;;;;4920329;29;20448;-88
2022/10/19 03:09:24;;;;;;;0.00;0.00;;;;;;;;;;4920090;29;20040;-88
2022/10/19 03:11:50;;;;;;;0.00;0.00;;;;;;;;;;4905176;29;20114;-87
2022/10/19 03:14:16;;;;;;;0.00;0.00;;;;;;;;;;4919607;29;20130;-88
2022/10/19 03:16:42;;;;;;;0.00;0.00;;;;;;;;;;4920605;29;20055;-88
2022/10/19 03:19:08;;;;;;;0.00;0.00;;;;;;;;;;4920263;29;20046;-88
2022/10/19 03:21:34;;;;;;;0.00;0.00;;;;;;;;;;4920537;29;20391;-87
2022/10/19 03:24:00;;;;;;;0.00;0.00;;;;;;;;;;4919909;29;20047;-88
2022/10/19 03:26:26;;;;;;;0.00;0.00;;;;;;;;;;4904165;29;20040;-87
2022/10/19 03:28:52;;;;;;;0.00;0.00;;;;;;;;;;4919648;29;20063;-88
2022/10/19 03:31:19;;;;;;;0.00;0.00;;;;;;;;;;4920009;29;20150;-88
2022/10/19 03:33:45;;;;;;;0.00;0.00;;;;;;;;;;4903985;29;20115;-88
2022/10/19 03:36:14;;;;;;;0.00;0.00;;;;;;;;;;4904474;29;20071;-88
2022/10/19 03:38:40;;;;;;;0.00;0.00;;;;;;;;;;4903983;29;20110;-88
2022/10/19 03:41:06;;;;;;;0.00;0.00;;;;;;;;;;4904139;29;20114;-87
2022/10/19 03:43:32;;;;;;;0.00;0.00;;;;;;;;;;4919541;29;20054;-87
2022/10/19 03:45:58;;;;;;;0.00;0.00;;;;;;;;;;4919759;29;20044;-88
2022/10/19 03:48:24;;;;;;;0.00;0.00;;;;;;;;;;4919325;29;20046;-88
2022/10/19 03:51:13;;;;;;;0.00;0.00;;;;;;;;;;4904080;29;20047;-88
2022/10/19 03:53:40;;;;;;;0.00;0.00;;;;;;;;;;4917151;29;20051;-88
2022/10/19 03:56:12;;;;;;;0.00;0.00;;;;;;;;;;4919673;29;20040;-88
2022/10/19 03:58:38;;;;;;;0.00;0.00;;;;;;;;;;4903590;29;20043;-89
2022/10/19 04:01:09;;;;;;;0.00;0.00;;;;;;;;;;4919821;29;20054;-89
2022/10/19 04:03:35;;;;;;;0.00;0.00;;;;;;;;;;4903908;29;20430;-88
2022/10/19 04:06:09;;;;;;;0.00;0.00;;;;;;;;;;4903876;29;20099;-88
2022/10/19 04:08:35;;;;;;;0.00;0.00;;;;;;;;;;4903199;29;20075;-88
2022/10/19 04:11:05;;;;;;;0.00;0.00;;;;;;;;;;4919386;29;20043;-88
2022/10/19 04:13:31;;;;;;;0.00;0.00;;;;;;;;;;4902941;29;20043;-88
2022/10/19 04:15:58;;;;;;;0.00;0.00;;;;;;;;;;4918844;29;20127;-88
2022/10/19 04:18:24;;;;;;;0.00;0.00;;;;;;;;;;4903177;29;20040;-88
2022/10/19 04:20:55;;;;;;;0.00;0.00;;;;;;;;;;4919008;29;20551;-88
2022/10/19 04:23:21;;;;;;;0.00;0.00;;;;;;;;;;4903267;29;20046;-88
2022/10/19 04:25:47;;;;;;;0.00;0.00;;;;;;;;;;4918511;29;20466;-88
2022/10/19 04:28:13;;;;;;;0.00;0.00;;;;;;;;;;4902949;29;20060;-87
2022/10/19 04:30:39;;;;;;;0.00;0.00;;;;;;;;;;4921598;29;20479;-88
2022/10/19 04:33:05;;;;;;;0.00;0.00;;;;;;;;;;4922057;29;20074;-88
2022/10/19 04:35:31;;;;;;;0.00;0.00;;;;;;;;;;4937641;29;20039;-88
2022/10/19 04:37:58;;;;;;;0.00;0.00;;;;;;;;;;4921941;29;20380;-88
2022/10/19 04:40:24;;;;;;;0.00;0.00;;;;;;;;;;4937489;29;20486;-87
2022/10/19 04:42:50;;;;;;;0.00;0.00;;;;;;;;;;4921856;29;20118;-87
2022/10/19 04:45:17;;;;;;;0.00;0.00;;;;;;;;;;4921841;29;20104;-87
2022/10/19 04:47:43;;;;;;;0.00;0.00;;;;;;;;;;4937441;28;20043;-88
2022/10/19 04:50:09;;;;;;;0.00;0.00;;;;;;;;;;4937245;29;20039;-88
2022/10/19 04:52:35;;;;;;;0.00;0.00;;;;;;;;;;4937548;29;20506;-87
2022/10/19 04:55:01;;;;;;;0.00;0.00;;;;;;;;;;4937250;29;20043;-87
2022/10/19 04:57:27;;;;;;;0.00;0.00;;;;;;;;;;4921733;29;20047;-87
2022/10/19 04:59:53;;;;;;;0.00;0.00;;;;;;;;;;4937380;29;20045;-87
2022/10/19 05:02:19;;;;;;;0.00;0.00;;;;;;;;;;4921697;29;20047;-87
2022/10/19 05:04:47;;;;;;;0.00;0.00;;;;;;;;;;4921386;29;20509;-87
2022/10/19 05:07:13;;;;;;;0.00;0.00;;;;;;;;;;4937243;29;20071;-88
2022/10/19 05:09:39;;;;;;;0.00;0.00;;;;;;;;;;4921003;29;20495;-88
2022/10/19 05:12:05;;;;;;;0.00;0.00;;;;;;;;;;4921372;29;20042;-87
2022/10/19 05:14:32;;;;;;;0.00;0.00;;;;;;;;;;4937073;29;20130;-88
2022/10/19 05:16:58;;;;;;;0.00;0.00;;;;;;;;;;4937058;29;20581;-87
2022/10/19 05:19:24;;;;;;;0.00;0.00;;;;;;;;;;4921235;29;20070;-88
2022/10/19 05:21:50;;;;;;;0.00;0.00;;;;;;;;;;4937224;29;20134;-88
2022/10/19 05:24:16;;;;;;;0.00;0.00;;;;;;;;;;4921380;29;20130;-87
2022/10/19 05:26:42;;;;;;;0.00;0.00;;;;;;;;;;4937075;29;20508;-87
2022/10/19 05:29:12;;;;;;;0.00;0.00;;;;;;;;;;4933868;29;20055;-88
2022/10/19 05:31:38;;;;;;;0.00;0.00;;;;;;;;;;4934153;29;20075;-88
2022/10/19 05:34:04;;;;;;;0.00;0.00;;;;;;;;;;4918346;29;20035;-87
2022/10/19 05:36:35;;;;;;;0.00;0.00;;;;;;;;;;4918602;29;20039;-87
2022/10/19 05:39:04;;;;;;;0.00;0.00;;;;;;;;;;4922130;29;20396;-86
2022/10/19 05:41:30;;;;;;;0.00;0.00;;;;;;;;;;4937772;29;20476;-87
2022/10/19 05:43:57;;;;;;;0.00;0.00;;;;;;;;;;4937840;29;20094;-87
2022/10/19 05:46:24;;;;;;;0.00;0.00;;;;;;;;;;4937789;29;20131;-87
2022/10/19 05:48:50;;;;;;;0.00;0.00;;;;;;;;;;4921614;29;20044;-86
2022/10/19 05:51:18;;;;;;;0.00;0.00;;;;;;;;;;4921489;29;20075;-87
2022/10/19 05:53:44;;;;;;;0.00;0.00;;;;;;;;;;4937554;29;20074;-87
2022/10/19 05:56:13;;;;;;;0.00;0.00;;;;;;;;;;4929085;29;20098;-87
2022/10/19 05:58:39;;;;;;;0.00;0.00;;;;;;;;;;4956260;28;20371;-87
2022/10/19 06:01:05;;;;;;;0.00;0.00;;;;;;;;;;4956102;29;20043;-88
2022/10/19 06:03:31;;;;;;;0.00;0.00;;;;;;;;;;4940082;29;20482;-88
2022/10/19 06:05:58;;;;;;;0.00;0.00;;;;;;;;;;4940038;29;20491;-87
2022/10/19 06:08:24;;;;;;;0.00;0.00;;;;;;;;;;4940157;29;20047;-87
2022/10/19 06:10:50;;;;;;;0.00;0.00;;;;;;;;;;4956203;29;20050;-87
2022/10/19 06:13:17;;;;;;;0.00;0.00;;;;;;;;;;4940298;29;20482;-88
2022/10/19 06:15:43;;;;;;;0.00;0.00;;;;;;;;;;4955696;29;20046;-87
2022/10/19 06:18:10;;;;;;;0.00;0.00;;;;;;;;;;4955671;28;20134;-87
2022/10/19 06:20:37;;;;;;;0.00;0.00;;;;;;;;;;4955506;29;20053;-87
2022/10/19 06:23:04;;;;;;;0.00;0.00;;;;;;;;;;4939841;29;20490;-87
2022/10/19 06:25:30;;;;;;;0.00;0.00;;;;;;;;;;4955534;29;20110;-86
2022/10/19 06:27:56;;;;;;;0.00;0.00;;;;;;;;;;4939891;29;20049;-86
2022/10/19 06:30:22;;;;;;;0.00;0.00;;;;;;;;;;4956652;28;20055;-87
2022/10/19 06:32:48;;;;;;;0.00;0.00;;;;;;;;;;4958765;28;20054;-87
2022/10/19 06:35:15;;;;;;;0.00;0.00;;;;;;;;;;4958424;28;20039;-87
2022/10/19 06:37:41;;;;;;;0.00;0.00;;;;;;;;;;4974773;28;20549;-86
2022/10/19 06:40:07;;;;;;;0.00;0.00;;;;;;;;;;4974721;28;20043;-87
2022/10/19 06:42:33;;;;;;;0.00;0.00;;;;;;;;;;4974789;28;20058;-87
2022/10/19 06:44:59;;;;;;;0.00;0.00;;;;;;;;;;4977838;28;20046;-87
2022/10/19 06:47:30;;;;;;;0.00;0.00;;;;;;;;;;4977860;28;20046;-87
2022/10/19 06:49:56;;;;;;;0.00;0.00;;;;;;;;;;4962022;28;20078;-87
2022/10/19 06:52:22;;;;;;;0.00;0.00;;;;;;;;;;4974633;28;20050;-87
2022/10/19 06:54:48;;;;;;;0.00;0.00;;;;;;;;;;4961922;28;20050;-88
2022/10/19 06:57:14;;;;;;;0.00;0.00;;;;;;;;;;4961781;28;20046;-88
2022/10/19 06:59:40;;;;;;;0.00;0.00;;;;;;;;;;4974709;28;20105;-87
2022/10/19 07:02:06;;;;;;;0.00;0.00;;;;;;;;;;4974109;28;20545;-86
2022/10/19 07:04:32;;;;;;;0.00;0.00;;;;;;;;;;4958313;28;20102;-87
2022/10/19 07:06:58;;;;;;;0.00;0.00;;;;;;;;;;4958538;28;20077;-87
2022/10/19 07:09:24;;;;;;;0.00;0.00;;;;;;;;;;4957951;28;20506;-86
2022/10/19 07:11:50;;;;;;;0.00;0.00;;;;;;;;;;4961180;28;20053;-88
2022/10/19 07:14:16;;;;;;;0.00;0.00;;;;;;;;;;4977847;28;20042;-85
2022/10/19 07:16:42;;;;;;;0.00;0.00;;;;;;;;;;4977411;28;20492;-87
2022/10/19 07:19:09;;;;;;;0.00;0.00;;;;;;;;;;4977728;28;20046;-87
2022/10/19 07:21:40;;;;;;;0.00;0.00;;;;;;;;;;4977540;28;20200;-87
2022/10/19 07:24:06;;;;;;;0.00;0.00;;;;;;;;;;4961462;28;20039;-87
2022/10/19 07:26:32;;;;;;;0.00;0.00;;;;;;;;;;4977260;28;20505;-87
2022/10/19 07:28:58;;;;;;;0.00;0.00;;;;;;;;;;4977280;28;20364;-87
2022/10/19 07:31:25;;;;;;;0.00;0.00;;;;;;;;;;4977060;28;20042;-87
2022/10/19 07:33:52;;;;;;;0.00;0.00;;;;;;;;;;4961490;28;20034;-87
2022/10/19 07:36:18;;;;;;;0.00;0.00;;;;;;;;;;4961233;28;20038;-87
2022/10/19 07:38:44;;;;;;;0.00;0.00;;;;;;;;;;4961115;28;20489;-87
2022/10/19 07:41:14;;;;;;;0.00;0.00;;;;;;;;;;4960898;28;20038;-88
2022/10/19 07:43:42;;;;;;;0.00;0.00;;;;;;;;;;4961581;28;20034;-86
2022/10/19 07:46:10;;;;;;;0.00;0.00;;;;;;;;;;4960748;28;20050;-87
2022/10/19 07:48:36;;;;;;;0.00;0.00;;;;;;;;;;4976883;28;20056;-86
2022/10/19 07:51:03;;;;;;;0.00;0.00;;;;;;;;;;4961103;28;20046;-87
2022/10/19 07:53:29;;;;;;;0.00;0.00;;;;;;;;;;4976888;28;20453;-86
2022/10/19 07:55:55;;;;;;;0.00;0.00;;;;;;;;;;4977282;28;20042;-88
2022/10/19 07:58:21;;;;;;;0.00;0.00;;;;;;;;;;4977050;28;20077;-87
2022/10/19 08:00:47;;;;;;;0.00;0.00;;;;;;;;;;4959925;28;20073;-88
2022/10/19 08:03:13;;;;;;;0.00;0.00;;;;;;;;;;4960902;28;20136;-88
2022/10/19 08:05:39;;;;;;;0.00;0.00;;;;;;;;;;4976723;28;20092;-84
2022/10/19 08:08:05;;;;;;;0.00;0.00;;;;;;;;;;4975451;28;20046;-87
2022/10/19 08:10:31;;;;;;;0.00;0.00;;;;;;;;;;4976817;28;20504;-87
2022/10/19 08:12:57;;;;;;;0.00;0.00;;;;;;;;;;4976735;28;20054;-87
2022/10/19 08:15:25;;;;;;;0.00;0.00;;;;;;;;;;4976519;28;20133;-88
2022/10/19 08:17:51;;;;;;;0.00;0.00;;;;;;;;;;4976378;28;20050;-87
2022/10/19 08:20:17;;;;;;;0.00;0.00;;;;;;;;;;4976606;28;20056;-88
2022/10/19 08:22:44;;;;;;;0.00;0.00;;;;;;;;;;4976573;28;20133;-88
2022/10/19 08:25:10;;;;;;;0.00;0.00;;;;;;;;;;4960574;28;20042;-86
2022/10/19 08:27:36;;;;;;;0.00;0.00;;;;;;;;;;4976130;28;20096;-86
2022/10/19 08:30:02;;;;;;;0.00;0.00;;;;;;;;;;4960356;28;20434;-87
2022/10/19 08:32:28;;;;;;;0.00;0.00;;;;;;;;;;4976349;28;20038;-87
2022/10/19 08:34:54;;;;;;;0.00;0.00;;;;;;;;;;4960669;28;20050;-87
2022/10/19 08:37:20;;;;;;;0.00;0.00;;;;;;;;;;4976340;28;20040;-87
2022/10/19 08:39:46;;;;;;;0.00;0.00;;;;;;;;;;4976456;28;20034;-86
2022/10/19 08:42:17;;;;;;;0.00;0.00;;;;;;;;;;4976038;28;20042;-87
2022/10/19 08:44:55;;;;;;;0.00;0.00;;;;;;;;;;4960189;28;20042;-87
2022/10/19 08:47:30;;;;;;;0.00;0.00;;;;;;;;;;4960232;28;20046;-87
2022/10/19 08:49:56;;;;;;;0.00;0.00;;;;;;;;;;4976208;28;20084;-86
2022/10/19 08:52:25;;;;;;;0.00;0.00;;;;;;;;;;4960006;28;20053;-87
2022/10/19 08:54:55;;;;;;;0.00;0.00;;;;;;;;;;4976921;28;20458;-87
2022/10/19 08:57:30;;;;;;;0.00;0.00;;;;;;;;;;4978727;28;20092;-87
2022/10/19 09:00:07;;;;;;;0.00;0.00;;;;;;;;;;4959988;28;20121;-88
2022/10/19 09:02:36;;;;;;;0.00;0.00;;;;;;;;;;4960254;28;20114;-88
2022/10/19 09:05:05;;;;;;;0.00;0.00;;;;;;;;;;4976146;28;20039;-88
2022/10/19 09:07:35;;;;;;;0.00;0.00;;;;;;;;;;4975858;28;20049;-88
2022/10/19 09:10:16;;;;;;;0.00;0.00;;;;;;;;;;4960345;28;20474;-88
2022/10/19 09:13:01;;;;;;;0.00;0.00;;;;;;;;;;4978506;28;20121;-89
2022/10/19 09:15:39;;;;;;;0.00;0.00;;;;;;;;;;4980395;28;20045;-88
2022/10/19 09:18:26;;;;;;;0.00;0.00;;;;;;;;;;4980897;28;20069;-89
2022/10/19 09:20:57;;;;;;;0.00;0.00;;;;;;;;;;4981916;28;20054;-89
2022/10/19 09:23:45;;;;;;;0.00;0.00;;;;;;;;;;4981287;28;20046;-89
2022/10/19 09:26:16;;;;;;;0.00;0.00;;;;;;;;;;4964744;28;20042;-89
2022/10/19 09:28:47;;;;;;;0.00;0.00;;;;;;;;;;4960702;28;20055;-87
2022/10/19 09:31:25;;;;;;;0.00;0.00;;;;;;;;;;4976851;28;20521;-88
2022/10/19 09:33:54;;;;;;;0.00;0.00;;;;;;;;;;4977097;28;20053;-88
2022/10/19 09:36:21;;;;;;;0.00;0.00;;;;;;;;;;4960451;28;20043;-88
2022/10/19 09:38:48;;;;;;;0.00;0.00;;;;;;;;;;4976435;28;20039;-88
2022/10/19 09:41:16;;;;;;;0.00;0.00;;;;;;;;;;4975506;28;20042;-88
2022/10/19 09:43:49;;;;;;;0.00;0.00;;;;;;;;;;4960354;28;20054;-88
2022/10/19 09:46:22;;;;;;;0.00;0.00;;;;;;;;;;4960513;28;20042;-88
2022/10/19 09:48:52;;;;;;;0.00;0.00;;;;;;;;;;4976248;28;20441;-88
2022/10/19 09:51:18;;;;;;;0.00;0.00;;;;;;;;;;4976576;28;20390;-88
2022/10/19 09:53:52;;;;;;;0.00;0.00;;;;;;;;;;4959937;28;20043;-88
2022/10/19 09:56:19;;;;;;;0.00;0.00;;;;;;;;;;4976737;28;20050;-87
2022/10/19 09:58:50;;;;;;;0.00;0.00;;;;;;;;;;4976017;28;20085;-89
2022/10/19 10:01:33;;;;;;;0.00;0.00;;;;;;;;;;4959992;28;20058;-87
2022/10/19 10:04:15;;;;;;;0.00;0.00;;;;;;;;;;4960101;28;20101;-88
2022/10/19 10:06:42;;;;;;;0.00;0.00;;;;;;;;;;4976597;28;20039;-88
2022/10/19 10:09:15;;;;;;;0.00;0.00;;;;;;;;;;4975882;28;20442;-88
2022/10/19 10:11:42;;;;;;;0.00;0.00;;;;;;;;;;4976215;28;20112;-88
2022/10/19 10:14:31;;;;;;;0.00;0.00;;;;;;;;;;4975886;28;20045;-88
2022/10/19 10:17:02;;;;;;;0.00;0.00;;;;;;;;;;4975927;28;20158;-88
2022/10/19 10:19:29;;;;;;;0.00;0.00;;;;;;;;;;4959509;28;20050;-87
2022/10/19 10:21:56;;;;;;;0.00;0.00;;;;;;;;;;4975956;28;20154;-87
2022/10/19 10:24:24;;;;;;;0.00;0.00;;;;;;;;;;4975076;28;20121;-88
2022/10/19 10:26:52;;;;;;;0.00;0.00;;;;;;;;;;4959562;28;20047;-88
2022/10/19 10:29:25;;;;;;;0.00;0.00;;;;;;;;;;4958970;28;20055;-88
2022/10/19 10:31:53;;;;;;;0.00;0.00;;;;;;;;;;4975661;28;20049;-87
2022/10/19 10:34:29;;;;;;;0.00;0.00;;;;;;;;;;4959073;28;20066;-87
2022/10/19 10:36:56;;;;;;;0.00;0.00;;;;;;;;;;4975412;28;20479;-87
2022/10/19 10:39:23;;;;;;;0.00;0.00;;;;;;;;;;4975005;28;20039;-88
2022/10/19 10:41:50;;;;;;;0.00;0.00;;;;;;;;;;4959202;28;20048;-87
2022/10/19 10:44:18;;;;;;;0.00;0.00;;;;;;;;;;4975105;28;20093;-87
2022/10/19 10:46:55;;;;;;;0.00;0.00;;;;;;;;;;4975320;28;20439;-88
2022/10/19 10:49:26;;;;;;;0.00;0.00;;;;;;;;;;4974747;28;20094;-87
2022/10/19 10:51:54;;;;;;;0.00;0.00;;;;;;;;;;4975050;28;20043;-87
2022/10/19 10:54:20;;;;;;;0.00;0.00;;;;;;;;;;4958850;28;20073;-87
2022/10/19 10:56:56;;;;;;;0.00;0.00;;;;;;;;;;4975382;28;20391;-87
2022/10/19 10:59:24;;;;;;;0.00;0.00;;;;;;;;;;4974804;28;20452;-87
2022/10/19 11:02:16;;;;;;;0.00;0.00;;;;;;;;;;4960118;28;20043;-87
2022/10/19 11:04:47;;;;;;;0.00;0.00;;;;;;;;;;4972710;28;20110;-88
2022/10/19 11:07:19;;;;;;;0.00;0.00;;;;;;;;;;4975198;28;20098;-87
2022/10/19 11:09:51;;;;;;;0.00;0.00;;;;;;;;;;4974501;28;20039;-87
2022/10/19 11:12:19;;;;;;;0.00;0.00;;;;;;;;;;4974849;28;20394;-87
2022/10/19 11:14:50;;;;;;;0.00;0.00;;;;;;;;;;4974806;28;20041;-89
2022/10/19 11:17:18;;;;;;;0.00;0.00;;;;;;;;;;4975005;28;20039;-89
2022/10/19 11:19:45;;;;;;;0.00;0.00;;;;;;;;;;4958284;28;20046;-89
2022/10/19 11:22:20;;;;;;;0.00;0.00;;;;;;;;;;4974866;28;20054;-89
2022/10/19 11:24:56;;;;;;;0.00;0.00;;;;;;;;;;4974653;28;20078;-88
2022/10/19 11:27:41;;;;;;;0.00;0.00;;;;;;;;;;4973443;28;20446;-86
2022/10/19 11:30:13;;;;;;;0.00;0.00;;;;;;;;;;4958151;28;20050;-88
2022/10/19 11:32:50;;;;;;;0.00;0.00;;;;;;;;;;4974620;28;20462;-88
2022/10/19 11:35:30;;;;;;;0.00;0.00;;;;;;;;;;4973665;28;20082;-88
2022/10/19 11:38:02;;;;;;;0.30;0.10;;;;;;;;;;4957838;28;20047;-87
2022/10/19 11:40:33;;;;;;;0.00;0.00;;;;;;;;;;4958361;28;20042;-88
2022/10/19 11:43:01;;;;;;;0.00;0.00;;;;;;;;;;4974105;28;20108;-89
2022/10/19 11:45:39;;;;;;;0.00;0.00;;;;;;;;;;4958039;28;20097;-87
2022/10/19 11:48:11;;;;;;;0.00;0.00;;;;;;;;;;4973760;28;20511;-88
2022/10/19 11:50:56;;;;;;;0.00;0.00;;;;;;;;;;4973938;28;20039;-88
2022/10/19 11:53:31;;;;;;;0.00;0.00;;;;;;;;;;4973973;28;20065;-87
2022/10/19 11:56:19;;;;;;;0.00;0.00;;;;;;;;;;4973746;28;20093;-88
2022/10/19 11:58:48;;;;;;;0.00;0.00;;;;;;;;;;4957409;28;20282;-87
2022/10/19 12:01:23;;;;;;;0.00;0.00;;;;;;;;;;4973786;28;20050;-89
